BST,Max TemperatureF,Mean TemperatureF,Min TemperatureF,Max Dew PointF,MeanDew PointF,Min DewpointF,Max Humidity, Mean Humidity, Min Humidity, Max Sea Level PressureIn, Mean Sea Level PressureIn, Min Sea Level PressureIn, Max VisibilityMiles, Mean VisibilityMiles, Min VisibilityMiles, Max Wind SpeedMPH, Mean Wind SpeedMPH, Max Gust SpeedMPH,PrecipitationIn, CloudCover, Events, WindDirDegrees
2013-8-1,67,63,59,63,61,59,100,91,83,29.88,29.75,29.71,11,5,1,18,11,32,0.00,6,Rain,193
2013-8-2,68,62,57,63,60,54,100,90,78,29.81,29.74,29.68,12,6,0,18,13,29,0.02,4,Rain,222
2013-8-3,68,62,56,61,58,55,94,84,73,30.07,29.98,29.83,16,8,6,16,12,22,0.02,2,Rain,243
2013-8-4,66,63,60,63,62,59,100,95,83,30.06,29.98,29.89,12,4,1,21,15,36,0.12,8,Rain,207
2013-8-5,68,62,55,63,60,54,100,92,78,30.04,29.86,29.77,12,4,1,18,14,34,0.59,6,Rain,290
2013-8-6,66,58,50,57,55,50,100,83,59,30.05,30.01,29.92,16,8,6,9,5,,0.01,2,Fog,245
2013-8-7,68,60,51,57,55,50,100,81,57,30.06,29.96,29.89,16,8,6,10,6,,0.00,2,,36
2013-8-8,66,60,54,63,58,54,100,91,72,30.15,30.10,30.06,16,6,0,18,7,25,0.08,4,Fog-Rain,252
2013-8-9,66,62,55,63,55,52,100,79,58,30.29,30.19,30.06,16,8,3,14,11,23,0.00,3,Rain,312
2013-8-10,65,60,55,61,57,52,94,89,77,30.29,30.24,30.18,16,7,2,12,6,,0.01,6,,259
2013-8-11,66,62,58,60,57,52,100,84,64,30.19,30.14,30.12,16,6,1,14,7,,0.00,5,Fog-Rain,300
2013-8-12,65,61,57,54,53,50,88,74,55,30.21,30.14,30.09,16,8,6,14,9,24,0.00,4,,321
2013-8-13,65,59,53,57,55,52,94,82,60,30.28,30.25,30.21,12,7,6,9,7,,0.00,5,,291
2013-8-14,66,61,56,64,61,55,100,97,89,30.27,30.21,30.18,12,2,0,16,7,21,0.02,7,Fog-Rain,230
2013-8-15,66,63,60,64,63,61,100,98,94,30.17,30.09,30.01,5,3,0,16,12,,0.00,7,Rain,227
2013-8-16,66,62,57,63,60,55,100,89,69,30.08,30.01,29.95,19,5,0,16,11,,0.00,5,Fog-Rain,298
2013-8-17,64,60,56,63,59,55,100,93,82,30.05,29.89,29.77,16,4,0,23,12,38,0.43,6,Fog-Rain,237
2013-8-18,66,60,53,59,57,52,100,88,62,30.01,29.89,29.80,16,7,2,13,9,24,0.02,4,Rain,272
2013-8-19,65,59,53,55,52,46,94,75,41,30.21,30.09,30.01,16,8,6,10,7,,0.00,2,Rain,305
2013-8-20,66,58,49,57,54,48,100,81,61,30.39,30.35,30.33,16,7,1,10,5,,0.00,1,Fog,226
2013-8-21,67,60,52,59,56,51,100,82,65,30.32,30.24,30.15,16,9,6,7,5,,0.00,4,,227
2013-8-22,69,62,56,61,58,55,100,86,64,30.15,30.05,29.98,12,4,0,16,9,,0.00,2,Fog,80
2013-8-23,66,60,55,63,58,55,100,87,58,29.99,29.94,29.92,10,4,1,14,7,,0.02,6,Fog-Rain,242
2013-8-24,62,58,55,59,50,43,100,71,42,30.08,30.03,29.98,16,6,1,16,12,29,0.01,5,Rain,309
2013-8-25,66,62,57,59,56,52,100,81,56,30.07,30.00,29.92,16,6,1,22,11,34,0.00,4,Rain,5
2013-8-26,70,64,58,61,59,57,94,85,64,30.12,30.09,30.06,9,4,2,13,9,,0.00,2,,17
2013-8-27,67,62,57,59,57,55,100,84,59,30.18,30.11,30.06,11,5,2,17,11,,0.00,5,Rain,4
2013-8-28,70,64,57,59,57,55,94,79,52,30.25,30.21,30.15,12,7,4,13,7,,0.00,3,,6
2013-8-29,67,61,55,61,58,55,100,89,72,30.26,30.23,30.18,16,5,0,10,6,,0.02,5,Fog-Rain,264
2013-8-30,66,62,59,63,60,57,100,92,78,30.24,30.18,30.15,11,5,0,10,8,,0.01,6,Rain,275
2013-8-31,62,56,50,59,48,42,94,68,36,30.49,30.37,30.24,12,7,6,21,11,30,0.00,2,,14